Time;durP1;ratioP1;P1;durP2;ratioP2;P2;SDS_P1;SDS_P2;PMS_P1;PMS_P2;Temp;Humidity;BMP_temperature;BMP_pressure;BME280_temperature;BME280_humidity;BME280_pressure;Samples;Min_cycle;Max_cycle;Signal;HPM_P1;HPM_P2
2022/03/14 00:01:22;;;;;;;10.33;5.13;;;;;;;4.38;33.54;96348.06;10412798;28;20220;-56
2022/03/14 00:06:23;;;;;;;5.33;3.57;;;;;;;4.50;32.91;96353.16;10412517;28;20193;-56
2022/03/14 00:11:26;;;;;;;8.40;5.03;;;;;;;4.33;33.17;96342.41;10411886;28;20200;-58
2022/03/14 00:16:30;;;;;;;7.67;2.93;;;;;;;4.37;33.13;96333.44;10404948;28;20216;-57
2022/03/14 00:21:34;;;;;;;8.53;5.07;;;;;;;4.12;33.47;96339.81;10406649;28;20264;-54
2022/03/14 00:26:35;;;;;;;10.07;5.40;;;;;;;4.24;33.39;96325.00;10411596;28;20208;-53
2022/03/14 00:31:38;;;;;;;11.87;4.87;;;;;;;4.22;33.69;96351.06;10411794;28;20213;-52
2022/03/14 00:36:41;;;;;;;7.77;4.97;;;;;;;4.05;34.20;96374.97;10410929;28;20196;-57
2022/03/14 00:41:41;;;;;;;10.00;5.33;;;;;;;4.10;33.99;96365.03;10411356;28;20303;-56
2022/03/14 00:46:45;;;;;;;17.83;6.00;;;;;;;4.29;33.41;96372.97;10411199;28;20810;-56
2022/03/14 00:51:45;;;;;;;9.60;4.63;;;;;;;4.24;33.34;96380.31;10411039;28;20212;-55
2022/03/14 00:56:45;;;;;;;11.90;6.00;;;;;;;4.11;34.04;96372.69;10410252;28;20192;-59
2022/03/14 01:01:46;;;;;;;11.83;5.83;;;;;;;4.09;33.46;96377.19;10410489;28;20626;-59
2022/03/14 01:06:47;;;;;;;9.67;5.43;;;;;;;3.90;34.41;96402.94;10410706;28;20222;-60
2022/03/14 01:11:47;;;;;;;11.57;5.87;;;;;;;3.84;35.51;96429.31;10410440;28;20299;-59
2022/03/14 01:16:48;;;;;;;10.43;6.50;;;;;;;3.85;34.37;96411.06;10410535;28;20184;-59
2022/03/14 01:21:49;;;;;;;11.93;5.70;;;;;;;3.68;34.80;96415.00;10410107;28;20239;-55
2022/03/14 01:26:49;;;;;;;11.40;5.10;;;;;;;3.49;36.01;96440.69;10410065;28;20224;-60
2022/03/14 01:31:51;;;;;;;9.57;6.00;;;;;;;3.98;33.80;96404.91;10410301;28;20699;-58
2022/03/14 01:36:51;;;;;;;10.50;5.93;;;;;;;4.00;34.06;96408.22;10409657;28;20225;-55
2022/03/14 01:41:52;;;;;;;13.93;5.50;;;;;;;3.59;35.33;96451.16;10409768;28;20212;-53
2022/03/14 01:46:53;;;;;;;10.70;5.87;;;;;;;3.28;35.92;96464.72;10409878;28;20217;-56
2022/03/14 01:51:54;;;;;;;14.20;5.87;;;;;;;3.34;35.85;96448.72;10409713;28;20216;-59
2022/03/14 01:56:56;;;;;;;10.57;5.80;;;;;;;3.20;36.64;96480.81;10409760;28;20189;-53
2022/03/14 02:01:59;;;;;;;10.07;4.23;;;;;;;3.84;35.11;96426.72;10392146;28;20269;-57
2022/03/14 02:06:59;;;;;;;6.83;4.37;;;;;;;4.02;35.11;96419.28;10409464;28;20252;-57
2022/03/14 02:12:00;;;;;;;10.80;6.37;;;;;;;3.90;35.21;96397.75;10415894;28;20755;-51
2022/03/14 02:17:00;;;;;;;11.60;5.93;;;;;;;3.86;35.09;96376.44;10416802;28;20246;-55
2022/03/14 02:22:04;;;;;;;8.33;5.13;;;;;;;3.92;34.96;96388.91;10416445;28;20232;-54
2022/03/14 02:27:05;;;;;;;12.87;6.20;;;;;;;3.70;35.55;96405.31;10416256;28;20294;-58
2022/03/14 02:32:07;;;;;;;9.93;6.07;;;;;;;3.47;35.78;96440.00;10416201;28;20327;-57
2022/03/14 02:37:09;;;;;;;10.53;5.80;;;;;;;3.09;37.39;96460.09;10415675;28;20582;-55
2022/03/14 02:42:09;;;;;;;9.27;5.83;;;;;;;2.82;37.76;96488.88;10415695;28;20216;-59
2022/03/14 02:47:11;;;;;;;12.43;6.43;;;;;;;2.71;38.08;96507.78;10415621;28;20217;-56
2022/03/14 02:52:11;;;;;;;11.53;5.83;;;;;;;3.26;37.29;96509.75;10415360;28;20216;-57
2022/03/14 02:57:13;;;;;;;10.60;5.97;;;;;;;3.08;37.97;96537.84;10415677;28;20185;-59
2022/03/14 03:02:15;;;;;;;8.40;5.70;;;;;;;2.88;37.91;96552.25;10415246;28;20223;-59
2022/03/14 03:07:20;;;;;;;8.93;5.13;;;;;;;3.44;36.75;96525.69;10414874;28;20213;-59
2022/03/14 03:12:22;;;;;;;10.27;6.13;;;;;;;3.01;38.39;96553.84;10414736;28;20376;-59
2022/03/14 03:17:22;;;;;;;11.07;5.97;;;;;;;3.38;36.65;96540.75;10414306;28;20202;-57
2022/03/14 03:22:25;;;;;;;9.67;5.37;;;;;;;3.49;36.98;96527.00;10446297;22;20237;-52
2022/03/14 03:27:26;;;;;;;6.37;3.37;;;;;;;3.57;36.46;96527.22;10414177;28;20223;-52
2022/03/14 03:32:26;;;;;;;10.43;4.50;;;;;;;3.49;36.57;96536.50;10415044;28;20219;-54
2022/03/14 03:37:27;;;;;;;14.77;6.20;;;;;;;3.39;37.16;96538.97;10414763;28;20194;-50
2022/03/14 03:42:27;;;;;;;8.90;5.80;;;;;;;3.29;37.81;96554.38;10414529;28;20215;-57
2022/03/14 03:47:27;;;;;;;10.40;4.77;;;;;;;3.36;36.91;96550.38;10414454;28;20216;-55
2022/03/14 03:52:27;;;;;;;10.17;5.67;;;;;;;3.20;37.55;96576.59;10414288;28;20307;-54
2022/03/14 03:57:28;;;;;;;13.30;6.30;;;;;;;3.12;37.89;96597.03;10414138;28;20200;-53
2022/03/14 04:02:28;;;;;;;12.57;6.40;;;;;;;3.10;38.10;96609.28;10414177;28;20217;-54
2022/03/14 04:07:32;;;;;;;4.63;2.80;;;;;;;3.12;37.28;96620.31;10413538;28;20220;-52
2022/03/14 04:12:32;;;;;;;10.23;5.23;;;;;;;3.09;37.82;96614.56;10413274;28;20242;-55
2022/03/14 04:17:35;;;;;;;12.60;6.13;;;;;;;2.94;38.71;96634.59;10413340;28;20241;-56
2022/03/14 04:22:37;;;;;;;13.60;5.93;;;;;;;2.93;38.54;96638.16;10413056;28;20301;-53
2022/03/14 04:27:37;;;;;;;10.77;6.37;;;;;;;2.94;38.94;96645.81;10412797;28;20223;-55
2022/03/14 04:32:38;;;;;;;11.80;5.77;;;;;;;2.88;38.62;96648.84;10412965;28;20224;-55
2022/03/14 04:37:38;;;;;;;8.97;5.50;;;;;;;2.88;38.56;96642.81;10413200;28;20718;-54
2022/03/14 04:42:39;;;;;;;7.70;3.93;;;;;;;2.71;38.83;96656.97;10413069;28;20717;-54
2022/03/14 04:47:39;;;;;;;7.43;4.93;;;;;;;2.60;39.88;96666.28;10412238;28;20227;-55
2022/03/14 04:52:39;;;;;;;7.47;4.37;;;;;;;2.59;39.65;96668.97;10412128;28;20698;-54
2022/03/14 04:57:40;;;;;;;10.50;6.30;;;;;;;2.49;39.77;96689.50;10411997;28;20195;-53
2022/03/14 05:02:40;;;;;;;9.13;5.73;;;;;;;2.68;39.18;96683.88;10411767;28;20222;-54
2022/03/14 05:07:41;;;;;;;9.40;5.17;;;;;;;2.50;40.20;96710.09;10411814;28;20224;-54
2022/03/14 05:12:41;;;;;;;8.37;5.43;;;;;;;2.56;39.54;96708.84;10411736;28;20723;-54
2022/03/14 05:17:42;;;;;;;5.80;3.90;;;;;;;2.44;40.08;96757.03;10411857;28;20275;-55
2022/03/14 05:22:48;;;;;;;7.03;4.53;;;;;;;2.40;39.82;96734.09;10411232;28;20239;-59
2022/03/14 05:27:49;;;;;;;7.93;4.87;;;;;;;2.42;39.65;96733.06;10411408;28;20232;-58
2022/03/14 05:32:50;;;;;;;9.27;5.40;;;;;;;2.31;40.16;96738.13;10411361;28;20219;-58
2022/03/14 05:37:51;;;;;;;8.90;5.23;;;;;;;2.21;40.74;96756.03;10411349;28;20241;-59
2022/03/14 05:42:51;;;;;;;9.60;5.00;;;;;;;2.28;40.36;96757.28;10411258;28;20219;-58
2022/03/14 05:47:51;;;;;;;8.00;4.67;;;;;;;2.28;40.54;96761.59;10419121;28;20228;-57
2022/03/14 05:52:52;;;;;;;7.70;3.97;;;;;;;2.37;40.36;96755.81;10418954;28;20218;-54
2022/03/14 05:57:53;;;;;;;8.23;4.70;;;;;;;2.38;40.00;96759.22;10419116;28;20270;-58
2022/03/14 06:02:53;;;;;;;7.40;4.80;;;;;;;2.37;40.42;96773.91;10418569;28;20622;-53
2022/03/14 06:07:53;;;;;;;7.43;4.03;;;;;;;2.42;40.52;96779.59;10418795;28;20220;-57
2022/03/14 06:12:54;;;;;;;8.13;4.93;;;;;;;2.39;40.58;96782.41;10418220;28;20712;-57
2022/03/14 06:17:54;;;;;;;12.40;5.43;;;;;;;2.42;41.08;96791.69;10418144;28;20682;-57
2022/03/14 06:22:55;;;;;;;19.10;3.53;;;;;;;2.63;40.25;96789.41;10417630;28;20251;-59
2022/03/14 06:27:55;;;;;;;6.37;3.43;;;;;;;2.66;40.79;96815.06;10417598;28;20784;-59
2022/03/14 06:32:55;;;;;;;10.63;5.50;;;;;;;3.16;39.50;96807.31;10416366;28;20585;-60
2022/03/14 06:37:56;;;;;;;7.27;4.37;;;;;;;3.58;38.55;96794.81;10417246;28;20199;-58
2022/03/14 06:42:57;;;;;;;6.63;4.07;;;;;;;3.88;38.86;96811.69;10417812;28;20694;-60
2022/03/14 06:47:58;;;;;;;8.73;4.53;;;;;;;4.00;38.30;96803.00;10416709;28;20224;-61
2022/03/14 06:52:59;;;;;;;7.77;5.27;;;;;;;4.22;38.14;96811.78;10416808;28;20799;-60
2022/03/14 06:57:59;;;;;;;10.73;6.17;;;;;;;4.24;38.05;96817.66;10416458;28;20234;-61
2022/03/14 07:03:00;;;;;;;5.97;4.30;;;;;;;4.50;37.35;96815.69;10416393;28;20201;-61
2022/03/14 07:08:00;;;;;;;11.40;5.93;;;;;;;4.61;37.33;96833.88;10416240;28;20702;-61
2022/03/14 07:13:00;;;;;;;10.33;5.77;;;;;;;4.72;37.05;96840.84;10415706;28;20211;-61
2022/03/14 07:18:01;;;;;;;10.33;5.70;;;;;;;5.05;37.15;96836.59;10416116;28;20227;-60
2022/03/14 07:23:01;;;;;;;6.83;4.27;;;;;;;5.16;36.82;96846.16;10415091;28;20589;-57
2022/03/14 07:28:04;;;;;;;7.50;4.33;;;;;;;5.57;36.14;96849.06;10415392;28;20784;-61
2022/03/14 07:33:04;;;;;;;7.03;5.27;;;;;;;5.46;36.29;96845.53;10415160;28;20208;-60
2022/03/14 07:38:05;;;;;;;8.00;4.83;;;;;;;6.06;35.66;96858.97;10415087;28;20196;-57
2022/03/14 07:43:06;;;;;;;9.13;6.17;;;;;;;5.70;36.18;96865.31;10414976;28;20224;-59
2022/03/14 07:48:06;;;;;;;6.97;5.23;;;;;;;5.99;35.64;96867.41;10415965;28;20262;-56
2022/03/14 07:53:07;;;;;;;10.90;4.93;;;;;;;6.06;35.54;96879.78;10420793;28;20212;-53
2022/03/14 07:58:07;;;;;;;10.97;5.70;;;;;;;6.01;35.90;96883.69;10422496;28;20216;-56
2022/03/14 08:03:07;;;;;;;13.60;6.30;;;;;;;6.17;35.26;96881.50;10422788;28;20751;-57
2022/03/14 08:08:08;;;;;;;15.10;6.03;;;;;;;6.56;35.07;96902.59;10412786;28;20220;-57
2022/03/14 08:13:08;;;;;;;10.70;6.37;;;;;;;6.60;34.21;96884.97;10412763;28;20212;-59
2022/03/14 08:18:09;;;;;;;14.63;6.07;;;;;;;7.25;34.50;96902.97;10410785;28;20279;-57
2022/03/14 08:23:09;;;;;;;10.53;5.97;;;;;;;7.68;33.13;96899.28;10411561;28;20243;-61
2022/03/14 08:28:10;;;;;;;9.27;5.13;;;;;;;7.92;32.66;96911.16;10411207;28;20269;-60
2022/03/14 08:33:10;;;;;;;7.27;3.50;;;;;;;7.61;33.93;96924.22;10411152;28;20208;-59
2022/03/14 08:38:13;;;;;;;10.07;5.53;;;;;;;7.76;33.96;96935.94;10409617;28;20214;-60
2022/03/14 08:43:14;;;;;;;7.97;5.00;;;;;;;7.82;33.69;96932.78;10409666;28;20208;-56
2022/03/14 08:48:14;;;;;;;10.10;6.30;;;;;;;8.42;33.47;96959.78;10410624;28;20220;-58
2022/03/14 08:53:16;;;;;;;8.53;5.47;;;;;;;7.76;32.44;96912.47;10410949;28;20216;-58
2022/03/14 08:58:16;;;;;;;10.73;5.63;;;;;;;8.55;32.82;96963.00;10410644;28;20195;-58
2022/03/14 09:03:17;;;;;;;9.07;6.00;;;;;;;8.28;33.44;96942.75;10410498;28;20303;-58
2022/03/14 09:08:18;;;;;;;13.40;7.03;;;;;;;8.79;33.67;96978.25;10408496;28;20224;-57
2022/03/14 09:13:18;;;;;;;7.77;4.00;;;;;;;9.00;31.50;96935.44;10410201;28;20222;-58
2022/03/14 09:18:20;;;;;;;7.87;5.17;;;;;;;8.89;31.80;96941.66;10410752;28;20350;-57
2022/03/14 09:23:21;;;;;;;15.43;6.77;;;;;;;8.67;32.61;96968.91;10442198;22;20723;-56
2022/03/14 09:28:22;;;;;;;11.67;6.83;;;;;;;8.36;33.65;97010.75;10457895;28;20718;-59
2022/03/14 09:33:22;;;;;;;13.73;7.67;;;;;;;8.09;34.27;97012.22;10459686;28;20195;-54
2022/03/14 09:38:24;;;;;;;11.20;6.53;;;;;;;7.68;34.68;97027.84;10458926;28;20192;-56
2022/03/14 09:43:25;;;;;;;12.17;6.40;;;;;;;7.94;33.88;97018.78;10457711;28;20222;-55
2022/03/14 09:48:25;;;;;;;23.83;6.83;;;;;;;8.56;33.92;97053.44;10459253;28;20219;-57
2022/03/14 09:53:32;;;;;;;11.97;6.50;;;;;;;9.48;32.43;97025.16;10457848;28;20211;-56
2022/03/14 09:58:32;;;;;;;11.80;6.27;;;;;;;9.17;32.34;96992.22;10458799;28;20187;-56
2022/03/14 10:03:33;;;;;;;11.53;6.13;;;;;;;10.17;31.98;97040.47;10458469;28;20222;-58
2022/03/14 10:08:35;;;;;;;14.43;7.03;;;;;;;9.60;32.75;97032.72;10458318;28;20316;-61
2022/03/14 10:13:37;;;;;;;13.87;7.50;;;;;;;9.50;32.46;97021.47;10456899;28;20333;-58
2022/03/14 10:18:52;;;;;;;12.93;7.17;;;;;;;9.31;32.76;97032.78;10458085;28;20192;-60
2022/03/14 10:23:53;;;;;;;10.90;7.07;;;;;;;9.75;33.81;97090.63;10457698;28;20640;-55
2022/03/14 10:28:55;;;;;;;13.00;7.00;;;;;;;9.51;33.84;97072.81;10456788;28;20224;-60
2022/03/14 10:34:04;;;;;;;18.17;6.87;;;;;;;9.42;32.91;97037.03;10457435;28;20208;-59
2022/03/14 10:39:21;;;;;;;12.33;6.73;;;;;;;9.22;33.54;97051.94;10456927;28;20241;-59
2022/03/14 10:44:23;;;;;;;14.43;7.10;;;;;;;9.46;33.56;97081.06;10456136;28;20212;-56
2022/03/14 10:49:29;;;;;;;12.67;6.67;;;;;;;9.19;33.92;97092.25;10456839;28;20227;-55
2022/03/14 10:54:30;;;;;;;13.80;7.47;;;;;;;9.13;35.08;97118.94;10456352;28;20204;-58
2022/03/14 10:59:40;;;;;;;11.57;7.27;;;;;;;9.09;34.57;97112.31;10456581;28;20196;-55
2022/03/14 11:04:49;;;;;;;14.33;7.80;;;;;;;8.98;34.96;97128.97;10455931;28;20219;-59
2022/03/14 11:09:52;;;;;;;13.07;7.40;;;;;;;8.98;34.47;97130.75;10456060;28;20726;-55
2022/03/14 11:14:55;;;;;;;12.77;8.30;;;;;;;8.46;34.71;97102.19;10455700;28;20569;-56
2022/03/14 11:19:56;;;;;;;13.43;7.63;;;;;;;8.92;34.62;97114.63;10454857;28;20203;-56
2022/03/14 11:24:58;;;;;;;13.93;8.17;;;;;;;8.69;34.98;97127.13;10455101;28;20234;-57
2022/03/14 11:30:13;;;;;;;12.83;7.23;;;;;;;8.40;35.22;97130.44;10455292;28;20216;-58
2022/03/14 11:35:13;;;;;;;13.50;7.43;;;;;;;8.49;34.44;97128.84;10455065;28;20228;-59
2022/03/14 11:40:15;;;;;;;14.07;8.50;;;;;;;8.59;35.21;97133.28;10454048;28;20274;-56
2022/03/14 11:45:15;;;;;;;17.47;8.07;;;;;;;8.92;34.59;97119.03;10454081;28;20211;-60
2022/03/14 11:50:16;;;;;;;13.93;8.57;;;;;;;9.09;33.69;97094.03;10435342;28;20243;-59
2022/03/14 11:55:18;;;;;;;13.27;8.33;;;;;;;8.71;34.86;97098.25;10454140;28;20200;-55
2022/03/14 12:00:24;;;;;;;14.40;8.33;;;;;;;10.12;34.15;97144.81;10436220;28;20188;-58
2022/03/14 12:05:31;;;;;;;11.77;8.13;;;;;;;11.63;31.59;97119.03;10453724;28;20239;-58
2022/03/14 12:10:34;;;;;;;17.30;9.27;;;;;;;10.40;32.49;97065.44;10453501;28;20219;-56
2022/03/14 12:15:41;;;;;;;13.97;7.90;;;;;;;10.43;33.25;97093.97;10453507;28;20207;-54
2022/03/14 12:20:41;;;;;;;14.47;8.53;;;;;;;10.73;33.61;97133.94;10452124;28;20275;-54
2022/03/14 12:25:42;;;;;;;17.27;8.83;;;;;;;10.51;34.87;97151.72;10452625;28;20322;-55
2022/03/14 12:30:48;;;;;;;14.07;9.23;;;;;;;11.24;34.34;97177.91;10453042;28;20266;-56
2022/03/14 12:35:48;;;;;;;16.77;8.60;;;;;;;11.76;33.78;97177.22;10452229;28;20211;-60
2022/03/14 12:40:49;;;;;;;15.43;9.50;;;;;;;11.78;33.01;97185.75;10452570;28;20271;-57
2022/03/14 12:45:53;;;;;;;14.40;9.00;;;;;;;12.02;33.69;97215.84;10452494;28;20665;-56
2022/03/14 12:50:56;;;;;;;24.17;9.55;;;;;;;13.56;32.84;97246.59;10451987;28;20220;-59
2022/03/14 12:55:59;;;;;;;13.23;8.73;;;;;;;12.95;33.70;97241.47;10451049;28;20248;-59
2022/03/14 13:01:01;;;;;;;14.18;8.90;;;;;;;11.62;34.96;97217.09;10451852;28;20191;-56
2022/03/14 13:06:03;;;;;;;15.10;9.27;;;;;;;12.69;35.15;97270.41;10451766;28;20215;-59
2022/03/14 13:11:06;;;;;;;15.25;9.73;;;;;;;13.05;37.63;97356.25;10451788;28;20232;-56
2022/03/14 13:16:08;;;;;;;18.20;12.50;;;;;;;12.29;41.03;97427.63;10451350;28;20723;-56
2022/03/14 13:21:11;;;;;;;22.80;13.07;;;;;;;11.98;43.46;97479.69;10451891;28;20665;-59
2022/03/14 13:26:12;;;;;;;17.02;10.77;;;;;;;12.22;45.04;97486.19;10449950;28;20243;-56
2022/03/14 13:31:13;;;;;;;21.02;9.93;;;;;;;11.68;46.99;97499.94;10451238;28;20212;-55
2022/03/14 13:36:14;;;;;;;16.53;11.67;;;;;;;12.04;46.41;97486.97;10451078;28;20647;-55
2022/03/14 13:41:17;;;;;;;17.57;11.03;;;;;;;10.77;50.45;97513.50;10450998;28;20184;-57
2022/03/14 13:46:31;;;;;;;22.87;12.43;;;;;;;11.76;50.52;97496.59;10451207;28;20259;-60
2022/03/14 13:51:46;;;;;;;15.33;10.93;;;;;;;10.70;53.36;97497.53;10450947;28;20218;-55
2022/03/14 13:56:47;;;;;;;76.60;34.17;;;;;;;11.18;51.78;97485.31;10449739;28;20234;-58
2022/03/14 14:01:47;;;;;;;18.77;10.57;;;;;;;11.00;52.38;97481.78;10450672;28;20266;-57
2022/03/14 14:06:50;;;;;;;16.03;10.30;;;;;;;10.53;51.76;97464.97;10437585;28;20350;-60
2022/03/14 14:12:05;;;;;;;18.33;10.93;;;;;;;10.12;53.43;97484.31;10458383;28;20736;-60
2022/03/14 14:17:09;;;;;;;16.60;10.40;;;;;;;9.50;54.65;97504.47;10457046;28;20219;-58
2022/03/14 14:22:12;;;;;;;15.50;10.77;;;;;;;8.84;59.26;97550.00;10457261;28;20188;-60
2022/03/14 14:27:16;;;;;;;17.60;9.50;;;;;;;8.81;60.67;97547.63;10457693;28;20236;-58
2022/03/14 14:32:18;;;;;;;15.70;10.07;;;;;;;8.70;62.06;97548.50;10456124;28;20220;-56
2022/03/14 14:37:18;;;;;;;10.40;6.50;;;;;;;8.85;64.00;97535.97;10454425;28;20277;-59
2022/03/14 14:42:19;;;;;;;2.83;2.33;;;;;;;9.34;64.69;97528.47;10456887;28;20792;-60
2022/03/14 14:47:20;;;;;;;4.70;2.10;;;;;;;9.77;64.24;97537.91;10455112;28;20219;-62
2022/03/14 14:52:20;;;;;;;4.47;2.10;;;;;;;10.13;63.01;97533.09;10454132;28;20198;-60
2022/03/14 14:57:20;;;;;;;2.67;2.10;;;;;;;9.37;65.43;97564.81;10455625;28;20227;-59
2022/03/14 15:02:21;;;;;;;3.40;2.23;;;;;;;8.64;67.96;97560.25;10455281;28;20212;-60
2022/03/14 15:07:21;;;;;;;3.03;2.37;;;;;;;8.36;69.73;97566.81;10456384;28;20223;-57
2022/03/14 15:12:23;;;;;;;2.93;2.10;;;;;;;8.15;70.94;97564.94;10455648;28;20199;-57
2022/03/14 15:17:23;;;;;;;2.93;2.30;;;;;;;8.27;71.34;97570.16;10454726;28;20223;-59
2022/03/14 15:22:24;;;;;;;3.57;3.07;;;;;;;8.17;72.94;97576.09;10453305;28;20199;-56
2022/03/14 15:27:24;;;;;;;1.80;1.60;;;;;;;8.11;74.24;97587.00;10459879;22;20254;-60
2022/03/14 15:32:24;;;;;;;1.57;1.47;;;;;;;7.36;77.92;97614.41;10413381;28;20313;-58
2022/03/14 15:37:25;;;;;;;1.20;1.00;;;;;;;7.21;80.19;97605.13;10407694;28;20232;-58
2022/03/14 15:42:27;;;;;;;3.23;2.90;;;;;;;6.88;84.90;97604.88;10413323;28;20200;-56
2022/03/14 15:47:27;;;;;;;1.37;1.27;;;;;;;6.62;88.37;97598.97;10413349;28;20864;-54
2022/03/14 15:52:29;;;;;;;1.67;1.50;;;;;;;6.59;90.72;97606.97;10413367;28;20200;-54
2022/03/14 15:57:31;;;;;;;1.77;1.67;;;;;;;6.53;97.56;97615.22;10395588;28;20216;-60
2022/03/14 16:02:33;;;;;;;3.40;1.60;;;;;;;6.05;100.00;97614.19;10392894;28;20205;-57
2022/03/14 16:07:33;;;;;;;1.50;1.40;;;;;;;6.12;100.00;97619.78;10390868;28;20886;-60
2022/03/14 16:12:38;;;;;;;2.07;1.90;;;;;;;6.03;100.00;97621.28;10409918;28;20189;-60
2022/03/14 16:17:41;;;;;;;1.83;1.73;;;;;;;5.81;100.00;97631.44;10410315;28;20228;-58
2022/03/14 16:22:41;;;;;;;2.63;1.80;;;;;;;5.84;100.00;97631.22;10409750;28;20207;-57
2022/03/14 16:27:42;;;;;;;2.27;2.07;;;;;;;6.00;100.00;97639.69;10408954;28;20239;-58
2022/03/14 16:32:42;;;;;;;2.20;2.00;;;;;;;5.89;100.00;97639.53;10410241;28;20200;-57
2022/03/14 16:37:42;;;;;;;2.23;2.03;;;;;;;5.43;100.00;97653.00;10408985;28;20322;-58
2022/03/14 16:42:43;;;;;;;1.33;1.13;;;;;;;5.07;100.00;97678.69;10410768;28;20208;-58
2022/03/14 16:47:44;;;;;;;1.40;1.30;;;;;;;4.70;100.00;97691.41;10408893;28;20257;-56
2022/03/14 16:52:45;;;;;;;1.30;1.20;;;;;;;4.34;100.00;97695.31;10408161;28;20185;-58
2022/03/14 16:57:46;;;;;;;1.33;1.23;;;;;;;4.18;100.00;97703.19;10410001;28;20251;-54
2022/03/14 17:02:47;;;;;;;2.17;1.50;;;;;;;4.10;100.00;97700.22;10410291;28;20234;-55
2022/03/14 17:07:47;;;;;;;7.27;3.77;;;;;;;4.04;100.00;97709.22;10410608;28;20269;-59
2022/03/14 17:12:47;;;;;;;1.90;1.40;;;;;;;3.86;100.00;97720.63;10408897;28;20200;-56
2022/03/14 17:17:48;;;;;;;2.37;1.70;;;;;;;3.70;100.00;97720.69;10408861;28;20307;-59
2022/03/14 17:22:52;;;;;;;21.97;8.27;;;;;;;3.64;100.00;97724.47;10411013;28;20203;-56
2022/03/14 17:27:52;;;;;;;5.57;2.10;;;;;;;3.57;100.00;97723.19;10410478;28;20274;-56
2022/03/14 17:32:56;;;;;;;2.50;1.90;;;;;;;3.59;100.00;97717.91;10414554;28;20671;-60
2022/03/14 17:37:56;;;;;;;4.03;2.30;;;;;;;3.63;100.00;97717.63;10412773;28;20224;-60
2022/03/14 17:42:58;;;;;;;2.73;2.27;;;;;;;3.61;100.00;97718.63;10419379;28;20204;-60
2022/03/14 17:47:59;;;;;;;2.93;1.83;;;;;;;3.62;100.00;97722.91;10421329;28;20204;-60
2022/03/14 17:53:00;;;;;;;8.00;3.23;;;;;;;3.69;100.00;97722.47;10418179;28;20232;-55
2022/03/14 17:58:00;;;;;;;16.23;5.53;;;;;;;3.73;100.00;97726.53;10415399;28;20299;-54
2022/03/14 18:03:02;;;;;;;6.00;3.40;;;;;;;3.81;100.00;97726.09;10415056;28;20184;-56
2022/03/14 18:08:09;;;;;;;8.40;3.93;;;;;;;3.79;100.00;97730.53;10414971;28;20209;-53
2022/03/14 18:13:10;;;;;;;13.23;7.33;;;;;;;3.82;100.00;97732.94;10415918;28;20667;-56
2022/03/14 18:18:11;;;;;;;17.23;8.43;;;;;;;3.85;100.00;97727.59;10416850;28;20224;-54
2022/03/14 18:23:11;;;;;;;20.50;11.30;;;;;;;3.89;100.00;97743.78;10416987;28;20644;-55
2022/03/14 18:28:11;;;;;;;14.20;9.57;;;;;;;3.98;100.00;97750.19;10416205;28;20236;-56
2022/03/14 18:33:12;;;;;;;43.80;27.77;;;;;;;4.10;100.00;97757.25;10416656;28;20220;-58
2022/03/14 18:38:13;;;;;;;6.30;5.07;;;;;;;4.16;100.00;97753.47;10416293;28;20220;-57
2022/03/14 18:43:13;;;;;;;8.80;4.43;;;;;;;4.25;100.00;97753.75;10416121;28;20223;-59
2022/03/14 18:48:14;;;;;;;6.73;4.47;;;;;;;4.15;100.00;97765.63;10415863;28;20333;-54
2022/03/14 18:53:15;;;;;;;5.40;4.10;;;;;;;4.17;100.00;97770.72;10415096;28;20235;-56
2022/03/14 18:58:15;;;;;;;6.90;4.97;;;;;;;4.19;100.00;97771.44;10398039;28;20391;-57
2022/03/14 19:03:17;;;;;;;5.47;4.53;;;;;;;4.17;100.00;97766.34;10415119;28;20688;-54
2022/03/14 19:08:18;;;;;;;8.43;5.10;;;;;;;4.19;100.00;97785.25;10415072;28;20208;-54
2022/03/14 19:13:18;;;;;;;9.97;5.67;;;;;;;4.24;100.00;97780.63;10414819;28;20216;-58
2022/03/14 19:18:18;;;;;;;7.17;4.47;;;;;;;4.37;100.00;97779.91;10414368;28;20311;-55
2022/03/14 19:23:19;;;;;;;7.73;4.50;;;;;;;4.46;100.00;97792.34;10414743;28;20203;-58
2022/03/14 19:28:21;;;;;;;5.30;4.30;;;;;;;4.49;100.00;97786.97;10414154;28;20239;-60
2022/03/14 19:33:23;;;;;;;6.23;4.37;;;;;;;4.49;100.00;97796.47;10414195;28;20255;-60
2022/03/14 19:38:24;;;;;;;9.63;4.80;;;;;;;4.51;100.00;97807.63;10413387;28;20217;-59
2022/03/14 19:43:25;;;;;;;9.63;4.60;;;;;;;4.53;100.00;97798.81;10413692;28;20219;-58
2022/03/14 19:48:25;;;;;;;12.67;4.97;;;;;;;4.54;100.00;97808.25;10413611;28;20364;-60
2022/03/14 19:53:26;;;;;;;8.90;5.07;;;;;;;4.60;100.00;97801.88;10413207;28;20215;-58
2022/03/14 19:58:29;;;;;;;8.40;4.87;;;;;;;4.65;100.00;97810.22;10413228;28;20228;-57
2022/03/14 20:03:32;;;;;;;9.50;4.33;;;;;;;4.73;100.00;97804.56;10412197;28;20188;-54
2022/03/14 20:08:32;;;;;;;8.83;5.17;;;;;;;4.69;100.00;97801.31;10412800;28;20207;-59
2022/03/14 20:13:35;;;;;;;9.87;5.27;;;;;;;4.64;100.00;97811.16;10412401;28;20192;-57
2022/03/14 20:18:35;;;;;;;7.50;4.30;;;;;;;4.67;100.00;97810.13;10412059;28;20229;-58
2022/03/14 20:23:36;;;;;;;9.03;5.30;;;;;;;4.43;100.00;97806.31;10412283;28;20199;-53
2022/03/14 20:28:36;;;;;;;10.30;5.43;;;;;;;4.33;100.00;97802.59;10411589;28;20336;-57
2022/03/14 20:33:37;;;;;;;10.87;4.90;;;;;;;4.37;100.00;97800.66;10411925;28;20211;-57
2022/03/14 20:38:37;;;;;;;10.07;4.93;;;;;;;4.40;100.00;97798.72;10411078;28;20225;-56
2022/03/14 20:43:38;;;;;;;8.03;4.77;;;;;;;4.27;100.00;97806.41;10411076;28;20204;-56
2022/03/14 20:48:39;;;;;;;8.30;5.07;;;;;;;4.21;100.00;97814.53;10411467;28;20266;-52
2022/03/14 20:53:41;;;;;;;8.87;5.40;;;;;;;4.16;100.00;97823.50;10411179;28;20698;-56
2022/03/14 20:58:44;;;;;;;11.40;5.43;;;;;;;4.01;100.00;97836.44;10411127;28;20235;-58
2022/03/14 21:03:46;;;;;;;6.87;4.47;;;;;;;4.19;100.00;97841.47;10410841;28;20200;-56
2022/03/14 21:08:47;;;;;;;8.37;5.20;;;;;;;4.13;100.00;97847.84;10393282;28;20239;-58
2022/03/14 21:13:51;;;;;;;12.93;5.50;;;;;;;4.06;100.00;97836.16;10410760;28;20227;-52
2022/03/14 21:18:52;;;;;;;9.50;5.03;;;;;;;3.92;100.00;97855.06;10410428;28;20677;-51
2022/03/14 21:23:54;;;;;;;7.23;4.93;;;;;;;3.88;100.00;97841.47;10410484;28;20199;-51
2022/03/14 21:28:56;;;;;;;9.53;5.37;;;;;;;3.76;100.00;97842.16;10448525;23;20271;-58
2022/03/14 21:33:59;;;;;;;11.47;5.30;;;;;;;3.71;100.00;97839.00;10410236;28;20927;-53
2022/03/14 21:39:00;;;;;;;8.03;4.77;;;;;;;3.56;100.00;97838.91;10408930;28;20351;-58
2022/03/14 21:44:01;;;;;;;7.83;5.23;;;;;;;3.54;100.00;97826.97;10409890;28;20314;-58
2022/03/14 21:49:02;;;;;;;9.07;5.30;;;;;;;3.28;100.00;97830.97;10409920;28;20208;-58
2022/03/14 21:54:02;;;;;;;13.03;5.53;;;;;;;3.27;100.00;97830.16;10409404;28;20188;-60
2022/03/14 21:59:02;;;;;;;12.43;6.00;;;;;;;3.22;100.00;97822.63;10409689;28;20276;-58
2022/03/14 22:04:03;;;;;;;10.43;5.70;;;;;;;3.20;100.00;97821.88;10409378;28;20283;-61
2022/03/14 22:09:04;;;;;;;12.77;5.63;;;;;;;3.18;100.00;97818.53;10409311;28;20212;-60
2022/03/14 22:14:05;;;;;;;11.80;5.60;;;;;;;3.04;100.00;97818.44;10409819;28;20200;-60
2022/03/14 22:19:07;;;;;;;9.50;5.70;;;;;;;3.04;100.00;97827.03;10409998;28;20228;-56
2022/03/14 22:24:07;;;;;;;10.07;5.30;;;;;;;2.94;100.00;97836.22;10410123;28;20531;-57
2022/03/14 22:29:09;;;;;;;11.40;5.23;;;;;;;2.80;100.00;97838.69;10416111;28;20240;-57
2022/03/14 22:34:11;;;;;;;10.27;5.10;;;;;;;2.87;100.00;97845.22;10417135;28;20192;-59
2022/03/14 22:39:11;;;;;;;8.93;5.10;;;;;;;2.82;100.00;97842.88;10416619;28;20241;-57
2022/03/14 22:44:12;;;;;;;10.37;5.40;;;;;;;2.82;100.00;97845.47;10416688;28;20201;-58
2022/03/14 22:49:12;;;;;;;9.83;4.87;;;;;;;2.83;100.00;97846.28;10416758;28;20203;-58
2022/03/14 22:54:13;;;;;;;14.40;5.23;;;;;;;3.05;100.00;97864.13;10416228;28;20188;-57
2022/03/14 22:59:13;;;;;;;9.13;4.73;;;;;;;2.82;100.00;97866.16;10416414;28;20466;-59
2022/03/14 23:09:32;;;;;;;13.30;5.63;;;;;;;2.85;100.00;97867.78;10415783;28;20573;-59
2022/03/14 23:14:33;;;;;;;12.83;5.33;;;;;;;2.57;100.00;97850.22;10415223;28;20191;-56
2022/03/14 23:19:33;;;;;;;8.80;5.10;;;;;;;2.61;100.00;97855.16;10415256;28;20242;-54
2022/03/14 23:24:33;;;;;;;10.63;5.00;;;;;;;2.58;100.00;97839.78;10414953;28;20250;-59